Elk City-Golden, Idaho
Current Conditions -  °F | °C
As of 10:35 PM on Tuesday 25 Nov 2014 (Local Time) from KGIC Reporting Station
Overcast Overcast  
Wind Chill: 38°   Ceiling: 3600
Heat Index: 45°   Visibility: 10mi
Dew Point: 43°   Wind: 15mph
Humidity: 93%   Direction: 240°WSW
Pressure: 30.18"   Gusts: NA
Location:  45.82°N, 115.43°W
Report Text: KGIC 260535Z AUTO 24013KT 10SM OVC036 07/06 A3018 RMK AO1 P0002 T00730062
Loading
Personal Weather Stations






























Interactive Weather Map New forecast layout! Learn more

10-Day Weather Forecast

Advertisements
Track Severe Weather on mobile